createdAt,value
2023-03-29T00:01:35.670Z,3.09
2023-03-29T00:04:06.579Z,3.08
2023-03-29T00:06:34.226Z,3.04
2023-03-29T00:09:01.954Z,3.00
2023-03-29T00:11:28.937Z,2.95
2023-03-29T00:13:55.886Z,2.88
2023-03-29T00:16:23.184Z,2.83
2023-03-29T00:18:50.725Z,2.76
2023-03-29T00:21:17.976Z,2.73
2023-03-29T00:23:52.097Z,2.68
2023-03-29T00:26:21.841Z,2.63
2023-03-29T00:28:48.644Z,2.60
2023-03-29T00:31:21.025Z,2.56
2023-03-29T00:33:50.754Z,2.54
2023-03-29T00:36:25.008Z,2.52
2023-03-29T00:38:51.701Z,2.53
2023-03-29T00:41:21.046Z,2.50
2023-03-29T00:44:04.342Z,2.48
2023-03-29T00:46:35.109Z,2.43
2023-03-29T00:49:14.005Z,2.41
2023-03-29T00:51:48.273Z,2.39
2023-03-29T00:54:22.992Z,2.36
2023-03-29T00:56:51.878Z,2.33
2023-03-29T00:59:32.809Z,2.29
2023-03-29T01:02:05.779Z,2.26
2023-03-29T01:05:05.311Z,2.22
2023-03-29T01:08:11.918Z,2.23
2023-03-29T01:11:02.870Z,2.19
2023-03-29T01:14:05.460Z,2.16
2023-03-29T01:16:41.775Z,2.16
2023-03-29T01:19:19.047Z,2.16
2023-03-29T01:22:26.073Z,2.13
2023-03-29T01:25:30.384Z,2.10
2023-03-29T01:28:08.773Z,2.09
2023-03-29T01:30:56.155Z,2.02
2023-03-29T01:33:34.059Z,1.94
2023-03-29T01:36:19.094Z,1.84
2023-03-29T01:39:06.978Z,1.81
2023-03-29T01:42:10.212Z,1.76
2023-03-29T01:44:48.395Z,1.66
2023-03-29T01:48:07.781Z,1.62
2023-03-29T01:51:05.215Z,1.57
2023-03-29T01:54:05.356Z,1.59
2023-03-29T01:56:53.156Z,1.56
2023-03-29T01:59:33.280Z,1.53
2023-03-29T02:02:08.411Z,1.48
2023-03-29T02:04:55.202Z,1.49
2023-03-29T02:07:37.313Z,1.47
2023-03-29T02:10:09.163Z,1.43
2023-03-29T02:12:37.180Z,1.47
2023-03-29T02:15:12.744Z,1.45
2023-03-29T02:17:51.156Z,1.40
2023-03-29T02:20:33.232Z,1.36
2023-03-29T02:23:27.357Z,1.42
2023-03-29T02:25:56.930Z,1.41
2023-03-29T02:28:29.704Z,1.39
2023-03-29T02:31:14.993Z,1.38
2023-03-29T02:34:30.967Z,1.39
2023-03-29T02:37:15.527Z,1.39
2023-03-29T02:39:52.400Z,1.41
2023-03-29T02:42:21.767Z,1.41
2023-03-29T02:44:57.035Z,1.43
2023-03-29T02:47:37.134Z,1.43
2023-03-29T02:50:05.134Z,1.42
2023-03-29T02:53:05.593Z,1.41
2023-03-29T02:55:38.302Z,1.47
2023-03-29T02:58:08.663Z,1.48
2023-03-29T03:00:45.037Z,1.50
2023-03-29T03:03:15.449Z,1.48
2023-03-29T03:05:49.582Z,1.49
2023-03-29T03:08:16.292Z,1.51
2023-03-29T03:10:43.107Z,1.51
2023-03-29T03:13:09.917Z,1.49
2023-03-29T03:15:44.670Z,1.47
2023-03-29T03:18:21.370Z,1.49
2023-03-29T03:21:09.156Z,1.48
2023-03-29T03:23:36.989Z,1.50
2023-03-29T03:26:03.949Z,1.49
2023-03-29T03:28:32.228Z,1.53
2023-03-29T03:31:02.549Z,1.55
2023-03-29T03:33:29.559Z,1.58
2023-03-29T03:36:06.521Z,1.57
2023-03-29T03:38:35.222Z,1.61
2023-03-29T03:41:02.699Z,1.65
2023-03-29T03:43:43.150Z,1.69
2023-03-29T03:46:10.462Z,1.70
2023-03-29T03:48:37.581Z,1.71
2023-03-29T03:51:04.770Z,1.73
2023-03-29T03:53:33.493Z,1.75
2023-03-29T03:56:02.150Z,1.77
2023-03-29T03:58:28.852Z,1.83
2023-03-29T04:00:55.560Z,1.82
2023-03-29T04:03:22.680Z,1.81
2023-03-29T04:05:50.264Z,1.81
2023-03-29T04:08:16.967Z,1.79
2023-03-29T04:11:00.131Z,1.77
2023-03-29T04:13:30.145Z,1.76
2023-03-29T04:15:58.807Z,1.74
2023-03-29T04:18:29.742Z,1.69
2023-03-29T04:20:56.856Z,1.67
2023-03-29T04:23:23.778Z,1.63
2023-03-29T04:25:56.550Z,1.62
2023-03-29T04:28:30.824Z,1.59
2023-03-29T04:30:57.606Z,1.55
2023-03-29T04:33:24.315Z,1.55
2023-03-29T04:35:54.223Z,1.55
2023-03-29T04:38:28.584Z,1.59
2023-03-29T04:40:58.197Z,1.60
2023-03-29T04:43:24.910Z,1.61
2023-03-29T04:45:55.109Z,1.61
2023-03-29T04:48:22.450Z,1.63
2023-03-29T04:50:49.456Z,1.63
2023-03-29T04:53:16.396Z,1.64
2023-03-29T04:55:45.749Z,1.65
2023-03-29T04:58:12.913Z,1.66
2023-03-29T05:00:41.517Z,1.66
2023-03-29T05:03:11.315Z,1.67
2023-03-29T05:05:38.451Z,1.68
2023-03-29T05:08:05.735Z,1.73
2023-03-29T05:10:32.472Z,1.77
2023-03-29T05:12:59.312Z,1.85
2023-03-29T05:15:26.129Z,1.91
2023-03-29T05:17:56.021Z,1.97
2023-03-29T05:20:23.579Z,2.00
2023-03-29T05:33:54.233Z,2.14
2023-03-29T05:36:21.391Z,2.14
2023-03-29T05:38:51.299Z,2.14
2023-03-29T05:41:18.753Z,2.15
2023-03-29T05:43:45.621Z,2.16
2023-03-29T05:46:12.819Z,2.17
2023-03-29T05:48:41.964Z,2.20
2023-03-29T05:53:56.537Z,2.22
2023-03-29T05:56:23.296Z,2.27
2023-03-29T05:58:51.361Z,2.29
2023-03-29T06:01:19.057Z,2.33
2023-03-29T06:03:49.232Z,2.39
2023-03-29T06:06:16.755Z,2.41
2023-03-29T06:08:45.021Z,2.42
2023-03-29T06:24:46.288Z,2.56
2023-03-29T06:40:52.634Z,3.01
2023-03-29T06:43:19.379Z,3.06
2023-03-29T06:45:46.144Z,3.04
2023-03-29T06:48:12.854Z,3.14
2023-03-29T06:50:42.074Z,3.19
2023-03-29T06:53:08.861Z,3.26
2023-03-29T06:55:38.829Z,3.31
2023-03-29T06:58:05.492Z,3.41
2023-03-29T07:00:36.499Z,3.50
2023-03-29T07:03:13.238Z,3.54
2023-03-29T07:05:44.874Z,3.61
2023-03-29T07:08:18.437Z,3.63
2023-03-29T07:10:52.912Z,3.75
2023-03-29T07:13:19.599Z,3.73
2023-03-29T07:15:46.429Z,3.82
2023-03-29T07:18:13.151Z,3.87
2023-03-29T07:20:44.290Z,3.89
2023-03-29T07:23:11.365Z,3.95
2023-03-29T07:25:38.380Z,4.04
2023-03-29T07:28:06.197Z,4.10
2023-03-29T07:30:33.818Z,4.21
2023-03-29T07:33:06.751Z,4.30
2023-03-29T07:35:33.577Z,4.37
2023-03-29T07:38:00.291Z,4.41
2023-03-29T07:40:27.317Z,4.44
2023-03-29T07:42:59.239Z,4.64
2023-03-29T07:45:31.001Z,4.73
2023-03-29T07:48:03.238Z,4.67
2023-03-29T07:50:32.543Z,4.84
2023-03-29T07:53:06.526Z,4.98
2023-03-29T07:55:34.366Z,5.03
2023-03-29T07:58:01.502Z,5.12
2023-03-29T08:00:28.439Z,5.11
2023-03-29T08:02:55.871Z,5.15
2023-03-29T08:05:33.608Z,5.13
2023-03-29T08:08:09.429Z,5.04
2023-03-29T08:10:47.324Z,5.14
2023-03-29T08:13:21.211Z,5.25
2023-03-29T08:15:48.738Z,5.54
2023-03-29T08:18:15.537Z,5.52
2023-03-29T08:20:44.815Z,5.60
2023-03-29T08:23:14.067Z,5.52
2023-03-29T08:25:50.242Z,5.30
2023-03-29T08:28:17.056Z,5.42
2023-03-29T08:30:44.073Z,5.72
2023-03-29T08:33:10.913Z,6.00
2023-03-29T08:35:37.820Z,5.86
2023-03-29T08:38:05.362Z,5.92
2023-03-29T08:40:32.192Z,5.95
2023-03-29T08:43:49.178Z,6.12
2023-03-29T08:47:11.583Z,6.17
2023-03-29T08:49:52.130Z,6.30
2023-03-29T08:52:54.261Z,6.25
2023-03-29T08:55:33.389Z,6.28
2023-03-29T08:58:12.372Z,6.26
2023-03-29T09:01:05.949Z,6.38
2023-03-29T09:03:48.440Z,6.52
2023-03-29T09:06:22.145Z,6.31
2023-03-29T09:08:52.618Z,6.46
2023-03-29T09:11:51.499Z,6.28
2023-03-29T09:15:15.221Z,6.34
2023-03-29T09:18:09.708Z,6.67
2023-03-29T09:22:05.137Z,6.79
2023-03-29T09:25:03.649Z,6.69
2023-03-29T09:28:02.401Z,6.77
2023-03-29T09:31:10.182Z,6.83
2023-03-29T09:34:26.491Z,6.85
2023-03-29T09:37:09.771Z,6.80
2023-03-29T09:39:41.698Z,6.60
2023-03-29T09:42:15.385Z,6.72
2023-03-29T09:45:08.767Z,6.86
2023-03-29T09:47:50.135Z,6.87
2023-03-29T09:50:37.138Z,6.68
2023-03-29T09:53:20.574Z,6.81
2023-03-29T09:55:50.896Z,6.77
2023-03-29T09:58:29.006Z,6.70
2023-03-29T10:01:08.247Z,6.29
2023-03-29T10:03:43.112Z,6.43
2023-03-29T10:06:12.494Z,6.62
2023-03-29T10:08:50.440Z,6.72
2023-03-29T10:11:38.413Z,6.54
2023-03-29T10:14:16.908Z,6.38
2023-03-29T10:16:55.800Z,6.27
2023-03-29T10:19:36.782Z,6.33
2023-03-29T10:22:20.013Z,6.37
2023-03-29T10:24:57.082Z,6.36
2023-03-29T10:27:36.138Z,6.49
2023-03-29T10:30:21.321Z,6.70
2023-03-29T10:33:02.826Z,6.79
2023-03-29T10:35:46.572Z,7.01
2023-03-29T10:38:24.834Z,7.06
2023-03-29T10:41:10.307Z,7.19
2023-03-29T10:43:45.364Z,7.12
2023-03-29T10:46:30.810Z,7.24
2023-03-29T10:49:19.606Z,7.14
2023-03-29T10:51:49.536Z,7.29
2023-03-29T10:54:23.177Z,7.53
2023-03-29T10:57:11.140Z,7.54
2023-03-29T11:00:54.802Z,7.43
2023-03-29T11:04:07.100Z,7.63
2023-03-29T11:06:57.597Z,7.24
2023-03-29T11:10:05.150Z,6.99
2023-03-29T11:12:56.809Z,6.94
2023-03-29T11:15:56.003Z,6.85
2023-03-29T11:19:11.840Z,6.92
2023-03-29T11:22:35.371Z,6.84
2023-03-29T11:25:43.797Z,6.84
2023-03-29T11:29:05.642Z,6.96
2023-03-29T11:32:10.596Z,6.99
2023-03-29T11:35:21.225Z,7.19
2023-03-29T11:38:10.167Z,7.57
2023-03-29T11:41:04.861Z,7.92
2023-03-29T11:44:04.361Z,8.49
2023-03-29T11:46:46.848Z,8.92
2023-03-29T11:49:54.574Z,9.13
2023-03-29T11:52:51.076Z,9.26
2023-03-29T11:55:35.548Z,9.68
2023-03-29T11:58:27.037Z,9.99
2023-03-29T12:01:22.227Z,9.53
2023-03-29T12:04:22.866Z,8.98
2023-03-29T12:07:12.084Z,8.76
2023-03-29T12:09:53.347Z,8.49
2023-03-29T12:12:56.320Z,8.34
2023-03-29T12:15:29.454Z,8.33
2023-03-29T12:18:30.309Z,8.31
2023-03-29T12:21:11.661Z,7.98
2023-03-29T12:23:47.162Z,7.92
2023-03-29T12:26:53.935Z,7.99
2023-03-29T12:30:28.780Z,7.99
2023-03-29T12:33:26.497Z,7.88
2023-03-29T12:36:49.795Z,7.62
2023-03-29T12:39:21.961Z,7.60
2023-03-29T12:41:51.647Z,7.57
2023-03-29T12:44:23.952Z,7.68
2023-03-29T12:47:02.330Z,7.75
2023-03-29T12:49:38.955Z,7.89
2023-03-29T12:52:36.592Z,8.15
2023-03-29T12:55:48.734Z,8.25
2023-03-29T12:58:42.281Z,8.27
2023-03-29T13:01:37.834Z,8.14
2023-03-29T13:04:36.444Z,8.22
2023-03-29T13:07:34.708Z,8.16
2023-03-29T13:10:27.103Z,8.00
2023-03-29T13:12:54.542Z,7.91
2023-03-29T13:15:29.998Z,7.92
2023-03-29T13:18:17.085Z,7.92
2023-03-29T13:21:30.073Z,7.85
2023-03-29T13:25:01.698Z,7.77
2023-03-29T13:28:02.307Z,7.74
2023-03-29T13:30:59.474Z,7.85
2023-03-29T13:33:57.227Z,8.02
2023-03-29T13:37:25.246Z,8.16
2023-03-29T13:39:55.963Z,8.25
2023-03-29T13:42:43.053Z,8.26
2023-03-29T13:45:32.663Z,8.32
2023-03-29T13:48:35.969Z,8.42
2023-03-29T13:51:41.699Z,8.41
2023-03-29T13:54:32.626Z,8.49
2023-03-29T13:57:20.436Z,8.47
2023-03-29T14:00:28.627Z,8.40
2023-03-29T14:03:07.271Z,8.43
2023-03-29T14:06:21.936Z,8.43
2023-03-29T14:08:51.709Z,8.40
2023-03-29T14:11:31.368Z,8.48
2023-03-29T14:14:07.344Z,8.40
2023-03-29T14:16:47.544Z,8.16
2023-03-29T14:19:36.075Z,8.12
2023-03-29T14:22:15.001Z,8.18
2023-03-29T14:24:52.703Z,8.28
2023-03-29T14:27:22.089Z,8.22
2023-03-29T14:29:54.295Z,8.29
2023-03-29T14:32:31.834Z,8.20
2023-03-29T14:35:00.626Z,8.17
2023-03-29T14:37:31.005Z,8.12
2023-03-29T14:39:59.272Z,7.99
2023-03-29T14:42:32.473Z,7.93
2023-03-29T14:45:16.755Z,7.92
2023-03-29T14:47:47.014Z,8.10
2023-03-29T14:50:30.984Z,8.32
2023-03-29T14:53:01.698Z,8.29
2023-03-29T14:55:28.770Z,8.16
2023-03-29T14:57:57.284Z,8.05
2023-03-29T15:00:43.466Z,7.95
2023-03-29T15:03:16.332Z,8.05
2023-03-29T15:05:58.983Z,7.99
2023-03-29T15:08:51.115Z,7.84
2023-03-29T15:11:30.701Z,7.87
2023-03-29T15:14:18.830Z,7.80
2023-03-29T15:16:50.988Z,7.71
2023-03-29T15:19:25.498Z,7.85
2023-03-29T15:21:53.156Z,7.96
2023-03-29T15:24:33.601Z,7.95
2023-03-29T15:27:13.150Z,7.84
2023-03-29T15:29:47.274Z,7.78
2023-03-29T15:32:35.130Z,7.86
2023-03-29T15:35:24.847Z,7.76
2023-03-29T15:37:53.670Z,7.69
2023-03-29T15:40:28.180Z,7.58
2023-03-29T15:42:55.564Z,7.52
2023-03-29T15:45:23.211Z,7.44
2023-03-29T15:47:50.215Z,7.47
2023-03-29T15:50:19.944Z,7.50
2023-03-29T15:52:46.710Z,7.58
2023-03-29T15:55:18.268Z,7.62
2023-03-29T15:57:49.085Z,7.71
2023-03-29T16:00:20.993Z,7.71
2023-03-29T16:19:14.169Z,7.75
2023-03-29T16:21:54.133Z,7.74
2023-03-29T16:24:29.442Z,7.77
2023-03-29T16:27:01.466Z,7.78
2023-03-29T16:29:29.319Z,7.80
2023-03-29T16:31:56.319Z,7.76
2023-03-29T16:34:24.096Z,7.75
2023-03-29T16:36:52.885Z,7.76
2023-03-29T16:39:22.689Z,7.67
2023-03-29T16:41:52.900Z,7.65
2023-03-29T16:44:23.963Z,7.61
2023-03-29T16:46:54.610Z,7.59
2023-03-29T16:49:22.468Z,7.56
2023-03-29T16:51:49.707Z,7.51
2023-03-29T16:54:19.906Z,7.53
2023-03-29T16:56:52.722Z,7.50
2023-03-29T16:59:19.362Z,7.46
2023-03-29T17:01:46.416Z,7.41
2023-03-29T17:04:13.176Z,7.39
2023-03-29T17:06:44.158Z,7.38
2023-03-29T17:09:13.297Z,7.34
2023-03-29T17:14:51.661Z,7.30
2023-03-29T17:17:19.186Z,7.28
2023-03-29T17:19:46.115Z,7.29
2023-03-29T17:22:18.914Z,7.25
2023-03-29T17:24:49.183Z,7.22
2023-03-29T17:27:19.346Z,7.18
2023-03-29T17:29:46.000Z,7.17
2023-03-29T17:32:15.697Z,7.16
2023-03-29T17:34:48.448Z,7.15
2023-03-29T17:37:17.634Z,7.16
2023-03-29T17:39:53.314Z,7.14
2023-03-29T17:42:23.005Z,7.13
2023-03-29T17:44:49.835Z,7.11
2023-03-29T17:47:22.863Z,7.13
2023-03-29T17:49:52.590Z,7.11
2023-03-29T17:52:19.476Z,7.11
2023-03-29T17:54:46.270Z,7.11
2023-03-29T17:57:16.327Z,7.08
2023-03-29T17:59:46.111Z,7.08
2023-03-29T18:02:20.933Z,7.05
2023-03-29T18:04:50.496Z,7.00
2023-03-29T18:07:17.534Z,6.90
2023-03-29T18:09:44.224Z,6.82
2023-03-29T18:12:10.992Z,6.79
2023-03-29T18:14:37.633Z,6.75
2023-03-29T18:17:04.585Z,6.72
2023-03-29T18:19:31.257Z,6.68
2023-03-29T18:21:58.033Z,6.67
2023-03-29T18:24:24.802Z,6.64
2023-03-29T18:26:51.572Z,6.64
2023-03-29T18:29:18.398Z,6.61
2023-03-29T18:31:46.224Z,6.61
2023-03-29T18:34:17.428Z,6.61
2023-03-29T18:36:46.605Z,6.59
2023-03-29T18:39:16.809Z,6.55
2023-03-29T18:41:43.824Z,6.53
2023-03-29T18:44:10.758Z,6.50
2023-03-29T18:46:37.846Z,6.51
2023-03-29T18:49:04.602Z,6.53
2023-03-29T18:51:34.696Z,6.51
2023-03-29T18:54:04.474Z,6.54
2023-03-29T18:56:35.522Z,6.53
2023-03-29T18:59:06.449Z,6.53
2023-03-29T19:01:33.710Z,6.52
2023-03-29T19:04:00.717Z,6.51
2023-03-29T19:06:27.537Z,6.51
2023-03-29T19:08:55.294Z,6.50
2023-03-29T19:11:30.478Z,6.49
2023-03-29T19:13:59.772Z,6.47
2023-03-29T19:16:27.549Z,6.49
2023-03-29T19:18:54.608Z,6.48
2023-03-29T19:21:21.317Z,6.47
2023-03-29T19:23:51.664Z,6.47
2023-03-29T19:26:26.389Z,6.47
2023-03-29T19:28:53.101Z,6.46
2023-03-29T19:31:19.932Z,6.46
2023-03-29T19:33:46.972Z,6.49
2023-03-29T19:36:13.688Z,6.48
2023-03-29T19:38:43.437Z,6.49
2023-03-29T19:41:10.318Z,6.50
2023-03-29T19:43:37.351Z,6.50
2023-03-29T19:46:20.788Z,6.50
2023-03-29T19:48:48.228Z,6.49
2023-03-29T19:51:19.466Z,6.47
2023-03-29T19:53:48.778Z,6.49
2023-03-29T19:56:18.578Z,6.50
2023-03-29T19:58:46.699Z,6.53
2023-03-29T20:01:17.854Z,6.51
2023-03-29T20:03:46.370Z,6.50
2023-03-29T20:06:13.371Z,6.49
2023-03-29T20:08:42.671Z,6.47
2023-03-29T20:11:10.677Z,6.50
2023-03-29T20:13:44.816Z,6.50
2023-03-29T20:16:26.438Z,6.51
2023-03-29T20:18:54.000Z,6.54
2023-03-29T20:21:23.327Z,6.54
2023-03-29T20:23:50.187Z,6.54
2023-03-29T20:26:25.780Z,6.59
2023-03-29T20:28:52.624Z,6.57
2023-03-29T20:31:25.700Z,6.58
2023-03-29T20:33:52.315Z,6.56
2023-03-29T20:36:23.216Z,6.60
2023-03-29T20:38:51.327Z,6.59
2023-03-29T20:41:22.814Z,6.58
2023-03-29T20:43:58.525Z,6.56
2023-03-29T20:46:35.723Z,6.56
2023-03-29T20:49:08.896Z,6.56
2023-03-29T20:51:36.853Z,6.57
2023-03-29T20:54:07.531Z,6.58
2023-03-29T20:56:40.161Z,6.58
2023-03-29T20:59:15.455Z,6.59
2023-03-29T21:01:45.316Z,6.56
2023-03-29T21:04:12.036Z,6.53
2023-03-29T21:06:45.662Z,6.50
2023-03-29T21:09:13.609Z,6.47
2023-03-29T21:11:44.436Z,6.44
2023-03-29T21:17:00.729Z,6.42
2023-03-29T21:19:28.218Z,6.42
2023-03-29T21:21:55.064Z,6.41
2023-03-29T21:24:24.779Z,6.43
2023-03-29T21:26:52.923Z,6.46
2023-03-29T21:29:25.284Z,6.49
2023-03-29T21:31:52.091Z,6.49
2023-03-29T21:34:22.794Z,6.50
2023-03-29T21:36:50.006Z,6.51
2023-03-29T21:39:17.228Z,6.49
2023-03-29T21:41:43.965Z,6.50
2023-03-29T21:44:10.891Z,6.54
2023-03-29T21:46:37.644Z,6.57
2023-03-29T21:49:04.511Z,6.55
2023-03-29T21:51:31.099Z,6.56
2023-03-29T21:53:57.794Z,6.55
2023-03-29T21:56:24.553Z,6.53
2023-03-29T21:58:51.197Z,6.55
2023-03-29T22:01:17.918Z,6.54
2023-03-29T22:03:44.668Z,6.53
2023-03-29T22:06:14.538Z,6.52
2023-03-29T22:08:46.597Z,6.55
2023-03-29T22:11:16.369Z,6.56
2023-03-29T22:13:46.049Z,6.54
2023-03-29T22:16:18.225Z,6.57
2023-03-29T22:18:49.624Z,6.56
2023-03-29T22:21:31.000Z,6.56
2023-03-29T22:24:01.850Z,6.59
2023-03-29T22:26:34.541Z,6.57
2023-03-29T22:29:01.779Z,6.58
2023-03-29T22:31:32.607Z,6.61
2023-03-29T22:34:03.473Z,6.63
2023-03-29T22:36:31.792Z,6.64
2023-03-29T22:39:01.707Z,6.62
2023-03-29T22:41:28.682Z,6.62
2023-03-29T22:43:58.733Z,6.63
2023-03-29T22:46:28.205Z,6.61
2023-03-29T22:48:55.067Z,6.62
2023-03-29T22:51:25.031Z,6.59
2023-03-29T22:53:51.954Z,6.58
2023-03-29T22:56:18.757Z,6.54
2023-03-29T22:58:46.057Z,6.55
2023-03-29T23:01:13.227Z,6.56
2023-03-29T23:03:43.326Z,6.58
2023-03-29T23:06:10.115Z,6.57
2023-03-29T23:08:36.949Z,6.58
2023-03-29T23:11:07.760Z,6.60
2023-03-29T23:13:35.058Z,6.59
2023-03-29T23:16:05.828Z,6.62
2023-03-29T23:18:34.815Z,6.62
2023-03-29T23:21:04.948Z,6.66
2023-03-29T23:23:32.493Z,6.69
2023-03-29T23:26:02.526Z,6.66
2023-03-29T23:28:34.274Z,6.69
2023-03-29T23:31:11.698Z,6.71
2023-03-29T23:33:44.192Z,6.73
2023-03-29T23:36:19.105Z,6.70
2023-03-29T23:38:46.951Z,6.72
2023-03-29T23:41:14.912Z,6.72
2023-03-29T23:43:46.954Z,6.70
2023-03-29T23:46:17.584Z,6.73
2023-03-29T23:48:50.155Z,6.75
2023-03-29T23:51:23.492Z,6.74
2023-03-29T23:53:50.562Z,6.74
2023-03-29T23:56:17.489Z,6.73
2023-03-29T23:58:44.530Z,6.76
